Time;durP1;ratioP1;P1;durP2;ratioP2;P2;SDS_P1;SDS_P2;PMS_P1;PMS_P2;Temp;Humidity;BMP_temperature;BMP_pressure;BME280_temperature;BME280_humidity;BME280_pressure;Samples;Min_cycle;Max_cycle;Signal;HPM_P1;HPM_P2
2022/09/25 00:00:53;;;;;;;;;;;11.30;99.90;;;;;;5043160;28;19970;-72
2022/09/25 00:03:19;;;;;;;;;;;11.20;99.90;;;;;;5043640;28;19927;-72
2022/09/25 00:05:45;;;;;;;;;;;11.20;99.90;;;;;;5053849;28;19921;-72
2022/09/25 00:08:11;;;;;;;;;;;11.10;99.90;;;;;;5043167;28;20367;-72
2022/09/25 00:10:41;;;;;;;;;;;11.00;99.90;;;;;;5043517;28;20050;-72
2022/09/25 00:13:06;;;;;;;;;;;11.00;99.90;;;;;;5039640;28;19923;-72
2022/09/25 00:15:32;;;;;;;;;;;10.90;99.90;;;;;;5036484;28;20004;-73
2022/09/25 00:17:57;;;;;;;;;;;10.80;99.90;;;;;;5032987;28;19927;-73
2022/09/25 00:20:23;;;;;;;;;;;10.80;99.90;;;;;;5031144;28;19921;-72
2022/09/25 00:22:49;;;;;;;;;;;10.70;99.90;;;;;;5031650;28;20369;-73
2022/09/25 00:25:15;;;;;;;;;;;10.70;99.90;;;;;;5031941;28;19925;-72
2022/09/25 00:27:41;;;;;;;;;;;10.60;99.90;;;;;;5030909;28;19921;-73
2022/09/25 00:30:07;;;;;;;;;;;10.60;99.90;;;;;;5033060;28;19925;-72
2022/09/25 00:32:33;;;;;;;;;;;10.50;99.90;;;;;;5031146;28;19920;-73
2022/09/25 00:34:59;;;;;;;;;;;10.50;99.90;;;;;;5031298;28;19928;-72
2022/09/25 00:37:26;;;;;;;;;;;10.40;99.90;;;;;;5032931;28;19921;-72
2022/09/25 00:39:52;;;;;;;;;;;10.40;99.90;;;;;;5031509;28;20369;-72
2022/09/25 00:42:19;;;;;;;;;;;10.40;99.90;;;;;;5031521;28;19975;-73
2022/09/25 00:44:55;;;;;;;;;;;10.30;99.90;;;;;;5032899;28;19925;-72
2022/09/25 00:47:44;;;;;;;;;;;10.20;99.90;;;;;;5032321;28;20384;-72
2022/09/25 00:50:17;;;;;;;;;;;10.20;99.90;;;;;;5020558;28;19921;-72
2022/09/25 00:52:43;;;;;;;;;;;10.20;99.90;;;;;;5031200;28;19921;-72
2022/09/25 00:55:11;;;;;;;;;;;10.20;99.90;;;;;;5031446;28;19928;-72
2022/09/25 00:57:37;;;;;;;;;;;10.10;99.90;;;;;;5030208;28;19925;-72
2022/09/25 01:00:06;;;;;;;;;;;10.10;99.90;;;;;;5030992;28;19921;-71
2022/09/25 01:02:34;;;;;;;;;;;10.10;99.90;;;;;;5030289;28;19921;-72
2022/09/25 01:05:23;;;;;;;;;;;10.10;99.90;;;;;;5030782;28;20585;-72
2022/09/25 01:07:50;;;;;;;;;;;10.10;99.90;;;;;;5024678;28;20405;-72
2022/09/25 01:10:17;;;;;;;;;;;10.30;99.90;;;;;;5032340;28;19921;-72
2022/09/25 01:12:45;;;;;;;;;;;10.00;99.90;;;;;;5036072;28;19917;-72
2022/09/25 01:15:12;;;;;;;;;;;10.00;99.90;;;;;;5033520;28;20010;-72
2022/09/25 01:17:40;;;;;;;;;;;10.00;99.90;;;;;;5033724;28;19971;-72
2022/09/25 01:20:09;;;;;;;;;;;10.10;99.90;;;;;;5033505;28;19921;-72
2022/09/25 01:22:49;;;;;;;;;;;10.10;99.90;;;;;;5030339;28;19932;-72
2022/09/25 01:25:21;;;;;;;;;;;10.10;99.90;;;;;;5031694;28;19932;-72
2022/09/25 01:27:52;;;;;;;;;;;10.10;99.90;;;;;;5031804;28;19964;-72
2022/09/25 01:30:18;;;;;;;;;;;10.10;99.90;;;;;;5030316;28;19929;-72
2022/09/25 01:32:55;;;;;;;;;;;10.10;99.90;;;;;;5029880;28;19932;-72
2022/09/25 01:35:39;;;;;;;;;;;10.20;99.90;;;;;;5030612;28;19921;-73
2022/09/25 01:38:18;;;;;;;;;;;10.20;99.90;;;;;;5028244;28;20381;-70
2022/09/25 01:40:48;;;;;;;;;;;10.10;99.90;;;;;;5030145;28;19928;-70
2022/09/25 01:43:14;;;;;;;;;;;10.10;99.90;;;;;;5030684;28;20059;-70
2022/09/25 01:45:50;;;;;;;;;;;10.10;99.90;;;;;;5029628;28;20401;-70
2022/09/25 01:48:17;;;;;;;;;;;10.00;99.90;;;;;;5032123;28;19967;-70
2022/09/25 01:50:52;;;;;;;;;;;9.90;99.90;;;;;;5030704;28;19947;-70
2022/09/25 01:53:22;;;;;;;;;;;9.90;99.90;;;;;;5029618;28;19999;-70
2022/09/25 01:55:50;;;;;;;;;;;10.00;99.90;;;;;;5030698;28;19925;-70
2022/09/25 01:58:16;;;;;;;;;;;9.90;99.90;;;;;;5030543;28;19928;-71
2022/09/25 02:00:44;;;;;;;;;;;9.90;99.90;;;;;;5028228;28;20267;-70
2022/09/25 02:03:13;;;;;;;;;;;9.80;99.90;;;;;;5030911;28;19921;-70
2022/09/25 02:05:47;;;;;;;;;;;9.80;99.90;;;;;;5031156;28;20020;-70
2022/09/25 02:08:16;;;;;;;;;;;9.80;99.90;;;;;;5031269;28;20505;-70
2022/09/25 02:10:44;;;;;;;;;;;9.70;99.90;;;;;;5033608;28;19947;-70
2022/09/25 02:13:16;;;;;;;;;;;9.80;99.90;;;;;;5035138;28;19999;-70
2022/09/25 02:15:53;;;;;;;;;;;9.70;99.90;;;;;;5032046;28;19928;-70
2022/09/25 02:21:07;;;;;;;;;;;9.80;99.90;;;;;;5007643;28;19925;-70
2022/09/25 02:23:43;;;;;;;;;;;9.80;99.90;;;;;;5007366;28;19921;-70
2022/09/25 02:26:15;;;;;;;;;;;9.80;99.90;;;;;;5007476;28;19921;-70
2022/09/25 02:28:41;;;;;;;;;;;9.80;99.90;;;;;;5007171;28;19921;-70
2022/09/25 02:31:08;;;;;;;;;;;9.70;99.90;;;;;;5007905;28;19921;-70
2022/09/25 02:33:37;;;;;;;;;;;9.70;99.90;;;;;;5007572;28;20057;-70
2022/09/25 02:36:03;;;;;;;;;;;9.70;99.90;;;;;;5007618;28;20007;-71
2022/09/25 02:38:32;;;;;;;;;;;9.80;99.90;;;;;;5006817;28;19929;-71
2022/09/25 02:41:20;;;;;;;;;;;9.90;99.90;;;;;;5023900;28;19921;-71
2022/09/25 02:43:48;;;;;;;;;;;10.10;99.90;;;;;;5023486;28;19925;-71
2022/09/25 02:46:14;;;;;;;;;;;10.30;99.90;;;;;;5027023;28;20066;-71
2022/09/25 02:48:49;;;;;;;;;;;10.50;99.90;;;;;;5023363;28;20020;-71
2022/09/25 02:51:18;;;;;;;;;;;10.60;99.90;;;;;;5002140;28;19952;-74
2022/09/25 02:54:01;;;;;;;;;;;10.70;99.90;;;;;;5005876;28;20392;-71
2022/09/25 02:56:37;;;;;;;;;;;10.80;99.90;;;;;;5001724;28;19928;-71
2022/09/25 02:59:07;;;;;;;;;;;10.80;99.90;;;;;;5025000;28;19921;-71
2022/09/25 03:01:35;;;;;;;;;;;10.80;99.90;;;;;;5025026;28;19928;-71
2022/09/25 03:04:02;;;;;;;;;;;10.80;99.90;;;;;;5011063;28;19955;-71
2022/09/25 03:06:29;;;;;;;;;;;10.80;99.90;;;;;;5006887;28;19921;-71
2022/09/25 03:08:55;;;;;;;;;;;10.90;99.90;;;;;;5025434;28;19947;-71
2022/09/25 03:11:22;;;;;;;;;;;10.80;99.90;;;;;;5004995;28;19928;-71
2022/09/25 03:13:58;;;;;;;;;;;10.80;99.90;;;;;;5008525;28;19979;-70
2022/09/25 03:16:39;;;;;;;;;;;10.80;99.90;;;;;;5035560;28;19921;-70
2022/09/25 03:19:05;;;;;;;;;;;10.70;99.90;;;;;;5044946;28;19936;-71
2022/09/25 03:21:31;;;;;;;;;;;10.70;99.90;;;;;;5052855;28;20288;-71
2022/09/25 03:23:58;;;;;;;;;;;10.70;99.90;;;;;;5053772;28;19920;-71
2022/09/25 03:26:27;;;;;;;;;;;10.70;99.90;;;;;;5044343;28;19921;-70
2022/09/25 03:28:53;;;;;;;;;;;10.70;99.90;;;;;;5054442;28;19935;-70
2022/09/25 03:31:18;;;;;;;;;;;10.60;99.90;;;;;;5044535;28;19921;-71
2022/09/25 03:33:44;;;;;;;;;;;10.60;99.90;;;;;;5044992;28;19924;-71
2022/09/25 03:36:11;;;;;;;;;;;10.60;99.90;;;;;;5054287;28;19921;-71
2022/09/25 03:38:37;;;;;;;;;;;10.60;99.90;;;;;;5043262;28;19927;-72
2022/09/25 03:41:08;;;;;;;;;;;10.60;99.90;;;;;;5053950;28;19920;-72
2022/09/25 03:43:37;;;;;;;;;;;10.70;99.90;;;;;;5043814;28;19985;-72
2022/09/25 03:46:04;;;;;;;;;;;10.70;99.90;;;;;;5041511;28;19920;-72
2022/09/25 03:48:30;;;;;;;;;;;10.60;99.90;;;;;;5053486;28;19921;-72
2022/09/25 03:50:56;;;;;;;;;;;10.60;99.90;;;;;;5053954;28;20362;-72
2022/09/25 03:53:22;;;;;;;;;;;10.60;99.90;;;;;;5042872;28;19924;-72
2022/09/25 03:55:47;;;;;;;;;;;10.60;99.90;;;;;;5044552;28;19921;-72
2022/09/25 03:58:14;;;;;;;;;;;10.60;99.90;;;;;;5053099;28;20364;-72
2022/09/25 04:00:39;;;;;;;;;;;10.60;99.90;;;;;;5042939;28;19920;-72
2022/09/25 04:03:05;;;;;;;;;;;10.60;99.90;;;;;;5053812;28;19921;-72
2022/09/25 04:05:31;;;;;;;;;;;10.70;99.90;;;;;;5042833;28;19920;-72
2022/09/25 04:07:56;;;;;;;;;;;10.70;99.90;;;;;;5053595;28;19928;-72
2022/09/25 04:10:22;;;;;;;;;;;10.70;99.90;;;;;;5043107;28;19929;-72
2022/09/25 04:12:54;;;;;;;;;;;10.80;99.90;;;;;;5043186;28;19927;-72
2022/09/25 04:15:23;;;;;;;;;;;10.70;99.90;;;;;;5036947;28;20006;-72
2022/09/25 04:17:49;;;;;;;;;;;10.70;99.90;;;;;;5033670;28;19921;-72
2022/09/25 04:20:15;;;;;;;;;;;10.70;99.90;;;;;;5031085;28;19932;-72
2022/09/25 04:22:41;;;;;;;;;;;10.60;99.90;;;;;;5032073;28;19921;-72
2022/09/25 04:25:08;;;;;;;;;;;10.60;99.90;;;;;;5032099;28;19921;-72
2022/09/25 04:27:33;;;;;;;;;;;10.50;99.90;;;;;;5031065;28;20369;-72
2022/09/25 04:30:00;;;;;;;;;;;10.50;99.90;;;;;;5031691;28;19935;-72
2022/09/25 04:35:10;;;;;;;;;;;10.50;99.90;;;;;;5031100;28;19921;-72
2022/09/25 04:37:35;;;;;;;;;;;10.50;99.90;;;;;;5032881;28;20440;-72
2022/09/25 04:40:01;;;;;;;;;;;10.50;99.90;;;;;;5033194;28;20372;-72
2022/09/25 04:42:26;;;;;;;;;;;10.50;99.90;;;;;;5026812;28;20361;-72
2022/09/25 04:44:53;;;;;;;;;;;10.50;99.90;;;;;;5031380;28;20404;-72
2022/09/25 04:47:22;;;;;;;;;;;10.70;99.90;;;;;;5031151;28;19917;-72
2022/09/25 04:49:48;;;;;;;;;;;10.60;99.90;;;;;;5031945;28;20330;-73
2022/09/25 04:52:14;;;;;;;;;;;10.70;99.90;;;;;;5032614;28;19924;-72
2022/09/25 04:54:40;;;;;;;;;;;10.60;99.90;;;;;;5031809;28;19923;-72
2022/09/25 04:57:06;;;;;;;;;;;10.60;99.90;;;;;;5031292;28;19928;-72
2022/09/25 04:59:31;;;;;;;;;;;10.60;99.90;;;;;;5030921;28;19921;-72
2022/09/25 05:01:57;;;;;;;;;;;10.50;99.90;;;;;;5030700;28;19925;-73
2022/09/25 05:04:22;;;;;;;;;;;10.60;99.90;;;;;;5031125;28;20407;-72
2022/09/25 05:06:48;;;;;;;;;;;10.40;99.90;;;;;;5032473;28;20011;-72
2022/09/25 05:09:13;;;;;;;;;;;10.30;99.90;;;;;;5030154;28;19928;-72
2022/09/25 05:11:39;;;;;;;;;;;10.70;99.90;;;;;;5030803;28;20281;-72
2022/09/25 05:14:04;;;;;;;;;;;10.20;99.90;;;;;;5030999;28;19921;-72
2022/09/25 05:16:30;;;;;;;;;;;10.10;99.90;;;;;;5029532;28;19975;-72
2022/09/25 05:18:56;;;;;;;;;;;10.00;99.90;;;;;;5031041;28;19953;-72
2022/09/25 05:21:21;;;;;;;;;;;9.90;99.90;;;;;;5030035;28;20336;-72
2022/09/25 05:23:50;;;;;;;;;;;9.80;99.90;;;;;;5031511;28;19921;-72
2022/09/25 05:26:15;;;;;;;;;;;9.80;99.90;;;;;;5030929;28;20019;-72
2022/09/25 05:28:41;;;;;;;;;;;9.70;99.90;;;;;;5031539;28;20003;-72
2022/09/25 05:31:06;;;;;;;;;;;9.70;99.90;;;;;;5030859;28;20324;-72
2022/09/25 05:33:32;;;;;;;;;;;9.60;99.90;;;;;;5029646;28;19964;-72
2022/09/25 05:36:01;;;;;;;;;;;10.20;99.90;;;;;;5030468;28;19921;-72
2022/09/25 05:38:27;;;;;;;;;;;9.50;99.90;;;;;;5028672;28;20012;-72
2022/09/25 05:40:54;;;;;;;;;;;9.50;99.90;;;;;;5030183;28;20368;-72
2022/09/25 05:43:20;;;;;;;;;;;9.50;99.90;;;;;;5031596;28;20280;-72
2022/09/25 05:45:55;;;;;;;;;;;9.40;99.90;;;;;;5025321;28;19928;-72
2022/09/25 05:48:20;;;;;;;;;;;9.40;99.90;;;;;;5028219;28;19921;-72
2022/09/25 05:50:52;;;;;;;;;;;9.40;99.90;;;;;;5029953;28;19928;-72
2022/09/25 05:53:18;;;;;;;;;;;9.40;99.90;;;;;;5026656;28;19917;-72
2022/09/25 05:55:53;;;;;;;;;;;9.40;99.90;;;;;;5030780;28;19928;-72
2022/09/25 05:58:20;;;;;;;;;;;9.30;99.90;;;;;;5023379;28;20396;-72
2022/09/25 06:00:46;;;;;;;;;;;9.30;99.90;;;;;;5031651;28;19925;-72
2022/09/25 06:03:12;;;;;;;;;;;9.30;99.90;;;;;;5030755;28;20446;-72
2022/09/25 06:05:39;;;;;;;;;;;9.30;99.90;;;;;;5029478;28;19951;-72
2022/09/25 06:08:05;;;;;;;;;;;9.30;99.90;;;;;;5030561;28;20016;-72
2022/09/25 06:10:30;;;;;;;;;;;9.30;99.90;;;;;;5029700;28;20373;-72
2022/09/25 06:12:59;;;;;;;;;;;9.30;99.90;;;;;;5029905;28;19994;-71
2022/09/25 06:15:29;;;;;;;;;;;9.30;99.90;;;;;;5029557;28;19929;-72
2022/09/25 06:17:55;;;;;;;;;;;9.40;99.90;;;;;;5030266;28;19925;-72
2022/09/25 06:20:21;;;;;;;;;;;9.40;99.90;;;;;;5030371;28;19921;-72
2022/09/25 06:22:51;;;;;;;;;;;9.50;99.90;;;;;;5029785;28;19928;-72
2022/09/25 06:25:16;;;;;;;;;;;9.50;99.90;;;;;;5031263;28;20372;-72
2022/09/25 06:27:42;;;;;;;;;;;9.50;99.90;;;;;;5029676;28;19921;-74
2022/09/25 06:30:08;;;;;;;;;;;9.80;99.90;;;;;;5031338;28;19925;-72
2022/09/25 06:32:33;;;;;;;;;;;9.60;99.90;;;;;;5029742;28;19921;-72
2022/09/25 06:34:59;;;;;;;;;;;9.70;99.90;;;;;;5030224;28;19920;-72
2022/09/25 06:37:25;;;;;;;;;;;9.60;99.90;;;;;;5030196;28;19967;-75
2022/09/25 06:39:50;;;;;;;;;;;9.80;99.90;;;;;;5029678;28;19975;-75
2022/09/25 06:42:16;;;;;;;;;;;9.70;99.90;;;;;;5029461;28;19921;-75
2022/09/25 06:44:42;;;;;;;;;;;9.90;99.90;;;;;;5030942;28;19927;-73
2022/09/25 06:47:12;;;;;;;;;;;9.80;99.90;;;;;;5028941;28;19944;-72
2022/09/25 06:49:37;;;;;;;;;;;10.10;99.90;;;;;;5026199;28;19952;-74
2022/09/25 06:52:03;;;;;;;;;;;9.90;99.90;;;;;;5031065;28;19971;-72
2022/09/25 06:54:30;;;;;;;;;;;9.90;99.90;;;;;;5030382;28;19972;-71
2022/09/25 06:56:55;;;;;;;;;;;10.00;99.90;;;;;;5032183;28;19921;-71
2022/09/25 06:59:24;;;;;;;;;;;10.00;99.90;;;;;;5032791;28;19922;-71
2022/09/25 07:01:50;;;;;;;;;;;10.10;99.90;;;;;;5032202;28;20016;-72
2022/09/25 07:04:16;;;;;;;;;;;10.10;99.90;;;;;;5033479;28;20043;-72
2022/09/25 07:06:42;;;;;;;;;;;10.20;99.90;;;;;;5032762;28;19921;-72
2022/09/25 07:09:08;;;;;;;;;;;10.30;99.90;;;;;;5032950;28;19921;-73
2022/09/25 07:11:34;;;;;;;;;;;10.40;99.90;;;;;;5034122;28;19921;-73
2022/09/25 07:13:59;;;;;;;;;;;10.50;99.90;;;;;;5033383;28;20320;-72
2022/09/25 07:16:26;;;;;;;;;;;10.60;99.90;;;;;;5050074;28;20415;-72
2022/09/25 07:18:53;;;;;;;;;;;10.70;99.90;;;;;;5054195;28;20344;-72
2022/09/25 07:21:19;;;;;;;;;;;10.80;99.90;;;;;;5043986;28;19920;-72
2022/09/25 07:23:48;;;;;;;;;;;10.90;99.90;;;;;;5053536;28;19929;-72
2022/09/25 07:26:21;;;;;;;;;;;11.00;99.90;;;;;;5054199;28;19925;-73
2022/09/25 07:28:47;;;;;;;;;;;11.10;99.90;;;;;;5045038;28;20016;-71
2022/09/25 07:31:15;;;;;;;;;;;11.20;99.90;;;;;;5053231;28;19920;-72
2022/09/25 07:33:40;;;;;;;;;;;11.90;99.90;;;;;;5041774;28;19928;-73
2022/09/25 07:36:10;;;;;;;;;;;13.40;99.90;;;;;;5044620;28;20372;-75
2022/09/25 07:38:36;;;;;;;;;;;15.00;99.90;;;;;;5052087;28;20280;-73
2022/09/25 07:41:04;;;;;;;;;;;16.60;99.90;;;;;;5054340;28;19920;-74
2022/09/25 07:43:30;;;;;;;;;;;18.20;99.90;;;;;;5052878;28;19988;-74
2022/09/25 07:45:56;;;;;;;;;;;19.40;99.90;;;;;;5040247;28;19921;-80
2022/09/25 07:48:22;;;;;;;;;;;20.40;99.90;;;;;;5040299;28;19935;-80
2022/09/25 07:50:49;;;;;;;;;;;20.80;99.00;;;;;;5042086;28;19920;-80
2022/09/25 07:53:17;;;;;;;;;;;21.00;99.20;;;;;;5027905;28;19924;-75
2022/09/25 07:55:43;;;;;;;;;;;20.40;99.50;;;;;;5043704;28;20391;-75
2022/09/25 07:58:09;;;;;;;;;;;20.20;98.30;;;;;;5043679;28;19925;-78
2022/09/25 08:00:34;;;;;;;;;;;20.60;99.10;;;;;;5045200;28;20399;-81
2022/09/25 08:03:03;;;;;;;;;;;21.10;98.70;;;;;;5043491;28;20304;-83
2022/09/25 08:05:29;;;;;;;;;;;21.50;96.40;;;;;;5043600;28;19921;-78
2022/09/25 08:07:54;;;;;;;;;;;21.20;96.20;;;;;;5037231;28;19925;-78
2022/09/25 08:10:23;;;;;;;;;;;20.40;96.70;;;;;;5048425;28;19951;-75
2022/09/25 08:12:49;;;;;;;;;;;19.60;97.90;;;;;;5052697;28;19921;-77
2022/09/25 08:15:15;;;;;;;;;;;18.80;99.30;;;;;;5053274;28;19931;-76
2022/09/25 08:17:41;;;;;;;;;;;18.50;99.90;;;;;;5047581;28;20008;-71
2022/09/25 08:20:08;;;;;;;;;;;18.90;99.90;;;;;;5052159;28;19964;-74
2022/09/25 08:22:34;;;;;;;;;;;19.50;99.90;;;;;;5052069;28;19967;-75
2022/09/25 08:25:01;;;;;;;;;;;20.40;97.10;;;;;;5043444;28;19963;-72
2022/09/25 08:27:27;;;;;;;;;;;21.70;95.80;;;;;;5049841;28;19921;-72
2022/09/25 08:29:56;;;;;;;;;;;23.10;94.30;;;;;;5052413;28;19920;-74
2022/09/25 08:32:22;;;;;;;;;;;24.10;93.50;;;;;;5040397;28;19920;-72
2022/09/25 08:34:47;;;;;;;;;;;24.60;90.50;;;;;;5051502;28;20011;-73
2022/09/25 08:37:14;;;;;;;;;;;25.10;90.00;;;;;;5042921;28;19968;-73
2022/09/25 08:39:42;;;;;;;;;;;25.50;88.70;;;;;;5051642;28;19928;-75
2022/09/25 08:42:20;;;;;;;;;;;25.50;89.80;;;;;;5037042;28;20043;-82
2022/09/25 08:49:00;;;;;;;;;;;25.30;84.80;;;;;;5037132;28;20384;-80
2022/09/25 08:50:22;;;;;;;;;;;26.30;85.40;;;;;;5048970;28;20011;-80
2022/09/25 08:52:56;;;;;;;;;;;26.00;85.20;;;;;;5049355;28;20368;-72
2022/09/25 08:56:13;;;;;;;;;;;26.30;84.40;;;;;;5038188;28;19927;-75
2022/09/25 08:58:12;;;;;;;;;;;26.90;85.40;;;;;;5041690;28;19924;-74
2022/09/25 09:00:37;;;;;;;;;;;27.10;85.60;;;;;;5038099;28;20035;-73
2022/09/25 09:03:03;;;;;;;;;;;27.30;82.50;;;;;;5041443;28;20019;-73
2022/09/25 09:05:36;;;;;;;;;;;26.80;83.90;;;;;;5040664;28;19944;-75
2022/09/25 09:08:08;;;;;;;;;;;26.20;84.40;;;;;;5022816;28;19931;-74
2022/09/25 09:10:41;;;;;;;;;;;24.60;83.70;;;;;;5046739;28;19931;-77
2022/09/25 09:13:25;;;;;;;;;;;22.70;87.30;;;;;;5051054;28;19928;-73
2022/09/25 09:16:02;;;;;;;;;;;21.20;90.30;;;;;;5054661;28;19932;-78
2022/09/25 09:18:29;;;;;;;;;;;20.10;92.20;;;;;;5039176;28;19921;-74
2022/09/25 09:20:56;;;;;;;;;;;19.40;93.30;;;;;;5035939;28;19924;-74
2022/09/25 09:23:42;;;;;;;;;;;18.90;94.50;;;;;;5058812;28;19975;-73
2022/09/25 09:26:33;;;;;;;;;;;18.60;95.90;;;;;;5017398;28;20025;-75
2022/09/25 09:29:05;;;;;;;;;;;18.40;95.30;;;;;;5036259;28;20007;-74
2022/09/25 09:31:36;;;;;;;;;;;18.20;96.10;;;;;;5057750;28;19928;-76
2022/09/25 09:34:20;;;;;;;;;;;18.00;96.70;;;;;;5043514;28;19928;-77
2022/09/25 09:37:11;;;;;;;;;;;18.00;97.40;;;;;;5029275;28;19928;-73
2022/09/25 09:39:39;;;;;;;;;;;18.00;98.50;;;;;;5015549;28;19939;-75
2022/09/25 09:42:08;;;;;;;;;;;18.40;99.00;;;;;;5039553;28;19921;-76
2022/09/25 09:44:42;;;;;;;;;;;19.60;96.10;;;;;;5036652;28;19924;-75
2022/09/25 09:47:11;;;;;;;;;;;21.10;95.80;;;;;;5058002;28;19956;-75
2022/09/25 09:49:40;;;;;;;;;;;22.10;93.60;;;;;;5038188;28;19985;-77
2022/09/25 09:52:16;;;;;;;;;;;23.30;91.70;;;;;;5038887;28;20300;-74
2022/09/25 09:54:47;;;;;;;;;;;24.20;90.60;;;;;;5057410;28;19926;-74
2022/09/25 09:57:36;;;;;;;;;;;25.00;87.10;;;;;;5057240;28;20054;-73
2022/09/25 10:00:04;;;;;;;;;;;25.50;86.40;;;;;;5019620;28;19929;-75
2022/09/25 10:02:30;;;;;;;;;;;26.30;87.00;;;;;;5034189;28;20011;-73
2022/09/25 10:04:56;;;;;;;;;;;26.90;81.50;;;;;;5051875;28;20020;-74
2022/09/25 10:07:23;;;;;;;;;;;27.30;82.70;;;;;;5051728;28;20277;-73
2022/09/25 10:09:49;;;;;;;;;;;27.50;82.60;;;;;;5054942;28;19943;-72
2022/09/25 10:12:37;;;;;;;;;;;26.60;79.20;;;;;;5053448;28;20452;-74
2022/09/25 10:15:04;;;;;;;;;;;26.70;83.10;;;;;;5030548;28;19925;-72
2022/09/25 10:17:31;;;;;;;;;;;26.30;81.20;;;;;;5034683;28;20381;-72
2022/09/25 10:19:58;;;;;;;;;;;25.20;83.10;;;;;;5032927;28;20019;-72
2022/09/25 10:22:31;;;;;;;;;;;23.70;84.20;;;;;;5034546;28;19970;-71
2022/09/25 10:25:01;;;;;;;;;;;22.40;86.20;;;;;;5032675;28;20005;-71
2022/09/25 10:27:28;;;;;;;;;;;21.80;87.80;;;;;;5032420;28;20011;-71
2022/09/25 10:30:01;;;;;;;;;;;21.10;89.60;;;;;;5048286;28;19987;-71
2022/09/25 10:32:27;;;;;;;;;;;20.20;90.30;;;;;;5036117;28;19924;-72
2022/09/25 10:34:53;;;;;;;;;;;19.70;92.10;;;;;;5053229;28;19994;-72
2022/09/25 10:37:20;;;;;;;;;;;19.10;93.00;;;;;;5047985;28;19921;-70
2022/09/25 10:40:06;;;;;;;;;;;18.70;93.20;;;;;;5029013;28;19925;-70
2022/09/25 10:42:40;;;;;;;;;;;18.50;93.60;;;;;;5029956;28;20345;-70
2022/09/25 10:45:20;;;;;;;;;;;18.20;95.30;;;;;;5033870;28;19929;-71
2022/09/25 10:51:05;;;;;;;;;;;18.70;94.60;;;;;;4964134;28;19969;-70
2022/09/25 10:53:30;;;;;;;;;;;20.10;95.20;;;;;;4964812;28;19918;-71
2022/09/25 10:56:01;;;;;;;;;;;21.00;92.20;;;;;;5002944;28;19927;-71
2022/09/25 10:58:35;;;;;;;;;;;22.20;91.10;;;;;;5035753;28;19916;-72
2022/09/25 11:01:01;;;;;;;;;;;23.80;87.10;;;;;;5050847;28;20280;-71
2022/09/25 11:03:29;;;;;;;;;;;25.00;88.00;;;;;;5053638;28;19927;-71
2022/09/25 11:05:56;;;;;;;;;;;25.70;84.40;;;;;;5041944;28;19921;-72
2022/09/25 11:08:25;;;;;;;;;;;25.90;81.60;;;;;;5052325;28;19935;-71
2022/09/25 11:10:55;;;;;;;;;;;25.80;82.00;;;;;;5053207;28;19947;-72
2022/09/25 11:13:35;;;;;;;;;;;25.90;82.80;;;;;;5039842;28;19936;-74
2022/09/25 11:16:03;;;;;;;;;;;25.70;79.40;;;;;;5051401;28;19927;-71
2022/09/25 11:18:36;;;;;;;;;;;26.40;80.00;;;;;;5052017;28;19920;-73
2022/09/25 11:21:03;;;;;;;;;;;27.00;80.50;;;;;;5053605;28;19960;-74
2022/09/25 11:23:40;;;;;;;;;;;27.20;81.50;;;;;;5053063;28;19922;-75
2022/09/25 11:26:15;;;;;;;;;;;27.20;79.40;;;;;;5036619;28;19921;-77
2022/09/25 11:29:03;;;;;;;;;;;28.00;80.10;;;;;;5052652;28;19928;-80
2022/09/25 11:31:32;;;;;;;;;;;27.20;77.40;;;;;;5041402;28;19921;-72
2022/09/25 11:34:04;;;;;;;;;;;25.50;78.00;;;;;;5042398;28;19921;-73
2022/09/25 11:36:29;;;;;;;;;;;24.30;78.80;;;;;;5052679;28;19931;-76
2022/09/25 11:42:10;;;;;;;;;;;24.80;81.10;;;;;;5042914;28;20406;-73
2022/09/25 11:44:38;;;;;;;;;;;24.50;81.10;;;;;;5012118;28;19975;-78
2022/09/25 11:47:24;;;;;;;;;;;25.20;78.30;;;;;;5043753;28;19943;-77
2022/09/25 11:49:50;;;;;;;;;;;25.80;77.70;;;;;;5037464;28;19921;-72
2022/09/25 11:52:19;;;;;;;;;;;26.40;76.50;;;;;;5052700;28;19967;-72
2022/09/25 11:55:03;;;;;;;;;;;26.50;76.50;;;;;;5050043;28;19990;-75
2022/09/25 11:57:35;;;;;;;;;;;26.20;77.20;;;;;;5051833;28;19921;-82
2022/09/25 12:00:06;;;;;;;;;;;24.60;76.10;;;;;;5044558;28;20387;-84
2022/09/25 12:02:48;;;;;;;;;;;24.50;78.30;;;;;;5046404;28;20254;-81
2022/09/25 12:05:17;;;;;;;;;;;24.50;76.10;;;;;;5043037;28;19928;-83
2022/09/25 12:08:02;;;;;;;;;;;23.50;80.20;;;;;;5039837;28;19928;-78
2022/09/25 12:10:32;;;;;;;;;;;23.50;81.30;;;;;;5043405;28;19928;-76
2022/09/25 12:13:10;;;;;;;;;;;24.50;79.90;;;;;;5043718;28;19920;-78
2022/09/25 12:15:42;;;;;;;;;;;25.30;79.10;;;;;;5040668;28;19929;-75
2022/09/25 12:18:12;;;;;;;;;;;26.10;78.30;;;;;;5052162;28;19924;-72
2022/09/25 12:20:38;;;;;;;;;;;26.90;79.80;;;;;;5042570;28;19921;-72
2022/09/25 12:23:03;;;;;;;;;;;27.20;76.00;;;;;;5052777;28;19921;-72
2022/09/25 12:25:48;;;;;;;;;;;27.30;75.90;;;;;;5025696;28;19921;-73
2022/09/25 12:28:45;;;;;;;;;;;27.00;75.60;;;;;;5040048;28;20361;-75
2022/09/25 12:31:38;;;;;;;;;;;27.50;75.80;;;;;;4959431;28;19973;-72
2022/09/25 12:34:13;;;;;;;;;;;26.90;75.10;;;;;;5046681;28;19974;-76
2022/09/25 12:36:41;;;;;;;;;;;27.00;74.10;;;;;;5037288;28;19920;-76
2022/09/25 12:39:10;;;;;;;;;;;26.10;77.30;;;;;;5041588;28;20364;-75
2022/09/25 12:41:42;;;;;;;;;;;25.10;76.40;;;;;;5052073;28;19931;-77
2022/09/25 12:44:30;;;;;;;;;;;25.00;80.50;;;;;;5048304;28;19924;-77
2022/09/25 12:47:01;;;;;;;;;;;25.10;79.90;;;;;;5049893;28;19940;-76
2022/09/25 12:49:45;;;;;;;;;;;25.50;78.50;;;;;;5052001;28;19943;-76
2022/09/25 12:52:13;;;;;;;;;;;25.70;78.90;;;;;;5048598;28;19994;-75
2022/09/25 12:54:48;;;;;;;;;;;25.20;78.30;;;;;;5051168;28;19920;-76
2022/09/25 12:57:25;;;;;;;;;;;24.90;77.50;;;;;;5037465;28;19921;-76
2022/09/25 12:59:51;;;;;;;;;;;24.90;76.60;;;;;;5039503;28;19932;-76
2022/09/25 13:02:33;;;;;;;;;;;24.50;78.60;;;;;;5042554;28;19921;-81
2022/09/25 13:05:11;;;;;;;;;;;24.00;76.90;;;;;;5036264;28;20375;-75
2022/09/25 13:07:43;;;;;;;;;;;23.80;78.70;;;;;;5035127;28;19968;-78
2022/09/25 13:10:17;;;;;;;;;;;23.40;79.10;;;;;;5041576;28;19925;-75
2022/09/25 13:12:43;;;;;;;;;;;23.00;79.00;;;;;;5041974;28;19921;-76
2022/09/25 13:15:16;;;;;;;;;;;22.30;78.20;;;;;;5053570;28;19932;-76
2022/09/25 13:17:42;;;;;;;;;;;22.20;78.50;;;;;;5062305;28;20034;-77
2022/09/25 13:20:26;;;;;;;;;;;21.80;80.20;;;;;;5042191;28;20007;-81
2022/09/25 13:22:56;;;;;;;;;;;21.40;80.40;;;;;;5056340;28;19924;-81
2022/09/25 13:25:22;;;;;;;;;;;21.40;81.60;;;;;;5044693;28;19928;-86
2022/09/25 13:27:49;;;;;;;;;;;21.40;79.60;;;;;;5044057;28;19920;-76
2022/09/25 13:30:24;;;;;;;;;;;21.40;81.40;;;;;;5060365;28;20120;-75
2022/09/25 13:32:51;;;;;;;;;;;21.40;82.40;;;;;;5059684;28;20384;-76
2022/09/25 13:35:17;;;;;;;;;;;21.30;82.80;;;;;;5025380;28;19927;-81
2022/09/25 13:37:43;;;;;;;;;;;21.30;80.80;;;;;;5043385;28;20005;-78
2022/09/25 13:43:20;;;;;;;;;;;20.80;82.00;;;;;;5054357;28;19950;-78
2022/09/25 13:45:47;;;;;;;;;;;20.70;84.20;;;;;;5043680;28;19924;-77
2022/09/25 13:48:33;;;;;;;;;;;20.60;84.60;;;;;;5043852;28;19927;-76
2022/09/25 13:51:17;;;;;;;;;;;20.80;87.30;;;;;;5042897;28;19927;-76
2022/09/25 13:53:58;;;;;;;;;;;20.80;85.10;;;;;;5059154;28;19927;-74
2022/09/25 13:56:27;;;;;;;;;;;20.80;85.50;;;;;;5063743;28;19922;-76
2022/09/25 13:59:18;;;;;;;;;;;20.70;84.30;;;;;;5044223;28;20346;-74
2022/09/25 14:01:43;;;;;;;;;;;20.20;84.70;;;;;;5044910;28;20426;-79
2022/09/25 14:04:12;;;;;;;;;;;20.10;87.90;;;;;;5044514;28;20023;-75
2022/09/25 14:06:40;;;;;;;;;;;20.10;86.60;;;;;;5063946;28;19927;-82
2022/09/25 14:09:11;;;;;;;;;;;20.10;86.50;;;;;;5049812;28;19925;-77
2022/09/25 14:11:37;;;;;;;;;;;19.70;87.40;;;;;;5047518;28;20412;-76
2022/09/25 14:14:13;;;;;;;;;;;19.90;89.90;;;;;;5047657;28;19921;-76
2022/09/25 14:16:48;;;;;;;;;;;19.80;90.30;;;;;;5047438;28;20103;-76
2022/09/25 14:19:25;;;;;;;;;;;19.80;89.20;;;;;;5047386;28;20257;-76
2022/09/25 14:21:51;;;;;;;;;;;19.80;89.00;;;;;;5041064;28;19924;-79
2022/09/25 14:24:41;;;;;;;;;;;19.60;89.40;;;;;;5048727;28;20319;-78
2022/09/25 14:27:17;;;;;;;;;;;19.50;90.10;;;;;;5066511;28;19921;-79
2022/09/25 14:29:43;;;;;;;;;;;19.20;90.40;;;;;;5060206;28;20356;-80
2022/09/25 14:32:17;;;;;;;;;;;19.10;90.80;;;;;;5038964;28;20018;-77
2022/09/25 14:34:46;;;;;;;;;;;19.10;90.50;;;;;;5034415;28;19943;-80
2022/09/25 14:37:27;;;;;;;;;;;19.10;91.50;;;;;;5033070;28;20388;-80
2022/09/25 14:40:12;;;;;;;;;;;19.00;91.60;;;;;;5033029;28;19928;-77
2022/09/25 14:42:44;;;;;;;;;;;18.90;91.20;;;;;;5033425;28;19946;-76
2022/09/25 14:45:11;;;;;;;;;;;18.80;90.40;;;;;;5039646;28;19928;-74
2022/09/25 14:47:38;;;;;;;;;;;18.70;90.90;;;;;;5042275;28;20476;-80
2022/09/25 14:50:04;;;;;;;;;;;18.70;90.40;;;;;;5043930;28;19928;-79
2022/09/25 14:52:33;;;;;;;;;;;18.60;91.10;;;;;;5034147;28;20372;-81